createdAt,value
2022-10-01T19:33:04.853Z,21.13
2022-10-01T19:34:04.833Z,21.15
2022-10-01T19:35:04.828Z,21.08
2022-10-01T19:36:04.809Z,21.11
2022-10-01T19:37:04.805Z,21.11
2022-10-01T19:38:04.791Z,21.11
2022-10-01T19:39:04.779Z,21.13
2022-10-01T19:40:04.767Z,21.11
2022-10-01T19:41:04.756Z,21.09
2022-10-01T19:42:04.745Z,21.16
2022-10-01T19:43:04.833Z,21.05
2022-10-01T19:44:04.719Z,21.11
2022-10-01T19:45:04.735Z,21.08
2022-10-01T19:46:04.703Z,21.09
2022-10-01T19:47:04.744Z,21.05
2022-10-01T19:48:04.686Z,20.97
2022-10-01T19:49:04.668Z,21.01
2022-10-01T19:50:04.658Z,21.01
2022-10-01T19:51:04.654Z,20.96
2022-10-01T19:52:04.640Z,20.96
2022-10-01T19:53:04.634Z,20.88
2022-10-01T19:54:04.622Z,20.85
2022-10-01T19:55:04.711Z,20.82
2022-10-01T19:56:04.599Z,20.79
2022-10-01T19:57:04.596Z,20.82
2022-10-01T19:58:04.581Z,20.91
2022-10-01T19:59:04.572Z,20.83
2022-10-01T20:00:04.561Z,20.87
2022-10-01T20:01:04.619Z,20.87
2022-10-01T20:02:04.573Z,20.82
2022-10-01T20:03:04.539Z,20.82
2022-10-01T20:04:04.528Z,20.69
2022-10-01T20:05:04.518Z,20.66
2022-10-01T20:06:04.507Z,20.57
2022-10-01T20:07:04.502Z,20.53
2022-10-01T20:08:04.485Z,20.54
2022-10-01T20:09:04.485Z,20.54
2022-10-01T20:10:05.856Z,20.58
2022-10-01T20:11:04.464Z,20.58
2022-10-01T20:12:04.451Z,20.41
2022-10-01T20:13:04.446Z,20.41
2022-10-01T20:14:04.432Z,20.50
2022-10-01T20:15:04.422Z,20.42
2022-10-01T20:16:04.429Z,20.35
2022-10-01T20:17:04.408Z,20.35
2022-10-01T20:18:04.388Z,20.38
2022-10-01T20:19:04.381Z,20.37
2022-10-01T20:20:04.376Z,20.38
2022-10-01T20:21:04.466Z,20.37
2022-10-01T20:22:04.354Z,20.34
2022-10-01T20:23:04.341Z,20.25
2022-10-01T20:24:04.340Z,20.23
2022-10-01T20:25:04.330Z,20.16
2022-10-01T20:26:04.311Z,20.19
2022-10-01T20:27:04.306Z,20.23
2022-10-01T20:28:04.362Z,20.10
2022-10-01T20:29:04.283Z,20.23
2022-10-01T20:30:04.278Z,20.19
2022-10-01T20:31:04.385Z,20.22
2022-10-01T20:32:04.257Z,20.12
2022-10-01T20:33:04.244Z,20.07
2022-10-01T20:34:04.240Z,20.08
2022-10-01T20:35:04.225Z,20.02
2022-10-01T20:36:04.213Z,20.15
2022-10-01T20:37:04.205Z,20.12
2022-10-01T20:38:04.202Z,20.07
2022-10-01T20:39:04.189Z,20.00
2022-10-01T20:40:04.179Z,19.98
2022-10-01T20:41:04.265Z,20.00
2022-10-01T20:42:04.158Z,20.02
2022-10-01T20:43:04.148Z,20.07
2022-10-01T20:44:04.139Z,20.10
2022-10-01T20:45:04.134Z,20.04
2022-10-01T20:46:04.181Z,19.94
2022-10-01T20:47:04.108Z,19.94
2022-10-01T20:48:04.097Z,19.97
2022-10-01T20:49:04.092Z,20.00
2022-10-01T20:50:06.932Z,19.86
2022-10-01T20:51:04.164Z,19.83
2022-10-01T20:52:04.054Z,19.72
2022-10-01T20:53:04.071Z,19.83
2022-10-01T20:54:04.037Z,19.70
2022-10-01T20:55:04.027Z,19.70
2022-10-01T20:56:04.017Z,19.64
2022-10-01T20:57:04.010Z,19.55
2022-10-01T20:58:03.997Z,19.53
2022-10-01T20:59:03.985Z,19.47
2022-10-01T21:00:03.975Z,19.46
2022-10-01T21:01:04.156Z,19.52
2022-10-01T21:02:04.013Z,19.53
2022-10-01T21:03:03.951Z,19.53
2022-10-01T21:04:03.936Z,19.46
2022-10-01T21:05:03.928Z,19.50
2022-10-01T21:06:03.917Z,19.43
2022-10-01T21:07:03.907Z,19.45
2022-10-01T21:08:03.893Z,19.40
2022-10-01T21:09:03.885Z,19.39
2022-10-01T21:10:03.872Z,19.45
2022-10-01T21:11:03.864Z,19.38
2022-10-01T21:12:03.854Z,19.39
2022-10-01T21:13:03.841Z,19.34
2022-10-01T21:14:03.829Z,19.32
2022-10-01T21:15:03.819Z,19.34
2022-10-01T21:16:03.858Z,19.34
2022-10-01T21:17:03.803Z,19.30
2022-10-01T21:18:03.791Z,19.20
2022-10-01T21:19:03.785Z,19.17
2022-10-01T21:20:03.770Z,19.15
2022-10-01T21:21:03.764Z,19.15
2022-10-01T21:22:03.746Z,19.16
2022-10-01T21:23:03.738Z,19.12
2022-10-01T21:24:03.728Z,19.15
2022-10-01T21:25:03.719Z,19.12
2022-10-01T21:26:03.706Z,19.12
2022-10-01T21:27:03.693Z,19.07
2022-10-01T21:28:03.731Z,19.05
2022-10-01T21:29:03.673Z,19.07
2022-10-01T21:30:03.660Z,19.10
2022-10-01T21:31:03.658Z,19.15
2022-10-01T21:32:03.645Z,19.06
2022-10-01T21:33:03.633Z,19.17
2022-10-01T21:34:03.624Z,19.06
2022-10-01T21:35:03.612Z,19.05
2022-10-01T21:36:03.597Z,19.06
2022-10-01T21:37:03.592Z,18.99
2022-10-01T21:38:03.680Z,18.94
2022-10-01T21:39:03.566Z,18.96
2022-10-01T21:40:03.558Z,19.02
2022-10-01T21:41:03.544Z,18.94
2022-10-01T21:42:03.537Z,18.99
2022-10-01T21:43:03.525Z,18.82
2022-10-01T21:44:05.107Z,18.91
2022-10-01T21:45:03.506Z,18.89
2022-10-01T21:46:03.530Z,18.83
2022-10-01T21:47:03.484Z,18.86
2022-10-01T21:48:03.474Z,18.86
2022-10-01T21:49:03.566Z,18.87
2022-10-01T21:50:03.451Z,18.90
2022-10-01T21:51:03.438Z,18.87
2022-10-01T21:52:03.435Z,18.87
2022-10-01T21:53:03.418Z,18.84
2022-10-01T21:54:03.406Z,18.91
2022-10-01T21:55:03.397Z,18.93
2022-10-01T21:56:03.385Z,18.89
2022-10-01T21:57:03.394Z,18.90
2022-10-01T21:58:03.366Z,18.86
2022-10-01T21:59:03.359Z,18.89
2022-10-01T22:00:03.349Z,18.83
2022-10-01T22:01:03.380Z,18.83
2022-10-01T22:02:03.366Z,18.91
2022-10-01T22:03:03.308Z,18.87
2022-10-01T22:04:03.299Z,18.86
2022-10-01T22:05:03.287Z,18.87
2022-10-01T22:06:03.273Z,18.90
2022-10-01T22:07:03.269Z,18.86
2022-10-01T22:08:03.250Z,18.87
2022-10-01T22:09:03.345Z,18.90
2022-10-01T22:10:03.236Z,18.90
2022-10-01T22:11:03.224Z,18.82
2022-10-01T22:12:03.214Z,18.82
2022-10-01T22:13:03.201Z,18.89
2022-10-01T22:14:03.184Z,18.89
2022-10-01T22:15:03.177Z,18.82
2022-10-01T22:16:03.225Z,18.84
2022-10-01T22:17:03.159Z,18.83
2022-10-01T22:18:03.149Z,18.74
2022-10-01T22:19:03.150Z,18.75
2022-10-01T22:20:03.126Z,18.71
2022-10-01T22:21:03.118Z,18.78
2022-10-01T22:22:03.099Z,18.79
2022-10-01T22:23:03.096Z,18.84
2022-10-01T22:24:03.082Z,18.79
2022-10-01T22:25:03.068Z,18.86
2022-10-01T22:26:03.059Z,18.89
2022-10-01T22:27:03.045Z,18.86
2022-10-01T22:28:03.069Z,18.72
2022-10-01T22:29:03.025Z,18.76
2022-10-01T22:30:03.019Z,18.74
2022-10-01T22:31:03.008Z,18.83
2022-10-01T22:32:03.055Z,18.74
2022-10-01T22:33:02.986Z,18.72
2022-10-01T22:34:03.071Z,18.78
2022-10-01T22:35:02.962Z,18.69
2022-10-01T22:36:02.954Z,18.75
2022-10-01T22:37:02.937Z,18.74
2022-10-01T22:38:02.930Z,18.66
2022-10-01T22:39:02.916Z,18.68
2022-10-01T22:40:02.909Z,18.68
2022-10-01T22:41:02.897Z,18.68
2022-10-01T22:42:02.884Z,18.65
2022-10-01T22:43:02.874Z,18.72
2022-10-01T22:44:02.862Z,18.62
2022-10-01T22:45:02.853Z,18.68
2022-10-01T22:46:02.914Z,18.65
2022-10-01T22:47:02.827Z,18.62
2022-10-01T22:48:02.816Z,18.65
2022-10-01T22:49:02.908Z,18.64
2022-10-01T22:50:02.833Z,18.64
2022-10-01T22:51:02.814Z,18.53
2022-10-01T22:52:02.807Z,18.56
2022-10-01T22:53:02.767Z,18.69
2022-10-01T22:54:02.755Z,18.65
2022-10-01T22:55:02.740Z,18.64
2022-10-01T22:56:02.728Z,18.64
2022-10-01T22:57:02.731Z,18.60
2022-10-01T22:58:02.705Z,18.57
2022-10-01T22:59:02.695Z,18.56
2022-10-01T23:00:02.684Z,18.62
2022-10-01T23:01:02.725Z,18.54
2022-10-01T23:02:02.686Z,18.51
2022-10-01T23:03:02.663Z,18.46
2022-10-01T23:04:02.643Z,18.41
2022-10-01T23:05:02.631Z,18.34
2022-10-01T23:06:02.623Z,18.38
2022-10-01T23:07:02.610Z,18.38
2022-10-01T23:08:02.598Z,18.35
2022-10-01T23:09:02.589Z,18.35
2022-10-01T23:10:02.679Z,18.36
2022-10-01T23:11:02.574Z,18.36
2022-10-01T23:12:02.555Z,18.38
2022-10-01T23:13:02.544Z,18.41
2022-10-01T23:14:02.532Z,18.38
2022-10-01T23:15:02.517Z,18.38
2022-10-01T23:16:02.658Z,18.39
2022-10-01T23:17:02.500Z,18.34
2022-10-01T23:18:02.487Z,18.32
2022-10-01T23:19:02.473Z,18.35
2022-10-01T23:20:02.561Z,18.26
2022-10-01T23:21:02.453Z,18.26
2022-10-01T23:22:02.438Z,18.32
2022-10-01T23:23:02.429Z,18.36
2022-10-01T23:24:02.426Z,18.29
2022-10-01T23:25:02.411Z,18.29
2022-10-01T23:26:02.398Z,18.28
2022-10-01T23:27:02.389Z,18.29
2022-10-01T23:28:02.414Z,18.35
2022-10-01T23:29:02.371Z,18.35
2022-10-01T23:30:02.453Z,18.31
2022-10-01T23:31:02.345Z,18.25
2022-10-01T23:32:02.398Z,18.29
2022-10-01T23:33:02.318Z,18.31
2022-10-01T23:34:02.847Z,18.28
2022-10-01T23:35:02.295Z,18.39
2022-10-01T23:36:02.284Z,18.29
2022-10-01T23:37:02.274Z,18.26
2022-10-01T23:38:02.260Z,18.29
2022-10-01T23:39:02.254Z,18.35
2022-10-01T23:40:02.341Z,18.36
2022-10-01T23:41:02.227Z,18.39
2022-10-01T23:42:02.224Z,18.28
2022-10-01T23:43:02.211Z,18.36
2022-10-01T23:44:02.195Z,18.36
2022-10-01T23:45:02.185Z,18.38
2022-10-01T23:46:02.281Z,18.35
2022-10-01T23:47:02.161Z,18.42
2022-10-01T23:48:02.154Z,18.39
2022-10-01T23:49:02.139Z,18.39
2022-10-01T23:50:02.252Z,18.41
2022-10-01T23:51:02.118Z,18.49
2022-10-01T23:52:02.107Z,18.59
2022-10-01T23:53:02.102Z,18.62
2022-10-01T23:54:02.084Z,18.62
2022-10-01T23:55:02.068Z,18.59
2022-10-01T23:56:02.062Z,18.68
2022-10-01T23:57:02.051Z,18.68
2022-10-01T23:58:03.311Z,18.64
2022-10-01T23:59:02.029Z,18.68
